createdAt,value
2018-08-12T00:02:16.321Z,26.00
2018-08-12T00:04:44.920Z,26.00
2018-08-12T00:07:13.608Z,26.00
2018-08-12T00:09:41.989Z,25.90
2018-08-12T00:12:10.759Z,25.90
2018-08-12T00:14:39.470Z,25.90
2018-08-12T00:17:08.280Z,25.90
2018-08-12T00:19:36.862Z,25.80
2018-08-12T00:22:05.639Z,25.90
2018-08-12T00:24:34.152Z,25.80
2018-08-12T00:27:02.943Z,25.80
2018-08-12T00:29:31.826Z,25.80
2018-08-12T00:32:00.678Z,25.70
2018-08-12T00:34:29.376Z,25.70
2018-08-12T00:36:58.201Z,25.70
2018-08-12T00:39:26.556Z,25.70
2018-08-12T00:41:54.958Z,25.70
2018-08-12T00:44:23.707Z,25.60
2018-08-12T00:46:52.467Z,25.60
2018-08-12T00:49:20.940Z,25.60
2018-08-12T00:51:49.581Z,25.60
2018-08-12T00:54:18.051Z,25.60
2018-08-12T00:56:46.517Z,25.60
2018-08-12T00:59:14.963Z,25.60
2018-08-12T01:01:43.585Z,25.60
2018-08-12T01:04:12.422Z,25.50
2018-08-12T01:06:41.335Z,25.60
2018-08-12T01:09:11.808Z,25.50
2018-08-12T01:11:40.350Z,25.50
2018-08-12T01:14:09.525Z,25.50
2018-08-12T01:16:38.016Z,25.40
2018-08-12T01:19:06.538Z,25.40
2018-08-12T01:21:35.105Z,25.40
2018-08-12T01:24:03.697Z,25.40
2018-08-12T01:26:32.477Z,25.40
2018-08-12T01:29:01.031Z,25.30
2018-08-12T01:31:29.363Z,25.30
2018-08-12T01:33:58.107Z,25.30
2018-08-12T01:36:26.602Z,25.20
2018-08-12T01:38:55.044Z,25.20
2018-08-12T01:41:23.496Z,25.20
2018-08-12T01:43:51.923Z,25.10
2018-08-12T01:46:20.754Z,25.10
2018-08-12T01:48:49.750Z,25.10
2018-08-12T01:51:18.167Z,25.10
2018-08-12T01:53:46.612Z,25.00
2018-08-12T01:56:14.927Z,25.00
2018-08-12T01:58:43.295Z,25.00
2018-08-12T02:01:11.710Z,25.00
2018-08-12T02:03:40.414Z,25.00
2018-08-12T02:06:09.648Z,25.00
2018-08-12T02:08:38.115Z,25.00
2018-08-12T02:11:06.723Z,25.00
2018-08-12T02:13:35.143Z,24.90
2018-08-12T02:16:03.967Z,24.90
2018-08-12T02:18:32.694Z,24.80
2018-08-12T02:21:01.230Z,24.80
2018-08-12T02:23:29.683Z,24.80
2018-08-12T02:25:58.389Z,24.80
2018-08-12T02:28:26.971Z,24.70
2018-08-12T02:30:55.352Z,24.80
2018-08-12T02:33:23.947Z,24.70
2018-08-12T02:35:52.332Z,24.70
2018-08-12T02:38:20.711Z,24.70
2018-08-12T02:40:49.625Z,24.70
2018-08-12T02:43:18.260Z,24.60
2018-08-12T02:45:46.837Z,24.70
2018-08-12T02:48:15.402Z,24.60
2018-08-12T02:50:44.390Z,24.60
2018-08-12T02:53:13.127Z,24.50
2018-08-12T02:55:45.331Z,24.60
2018-08-12T02:58:14.160Z,24.50
2018-08-12T03:00:42.916Z,24.50
2018-08-12T03:03:11.564Z,24.50
2018-08-12T03:05:40.653Z,24.50
2018-08-12T03:08:09.293Z,24.40
2018-08-12T03:10:37.629Z,24.40
2018-08-12T03:13:06.546Z,24.40
2018-08-12T03:15:35.484Z,24.40
2018-08-12T03:18:04.341Z,24.40
2018-08-12T03:20:33.037Z,24.30
2018-08-12T03:23:01.800Z,24.30
2018-08-12T03:25:30.444Z,24.30
2018-08-12T03:27:58.887Z,24.30
2018-08-12T03:30:27.455Z,24.20
2018-08-12T03:32:55.936Z,24.20
2018-08-12T03:35:24.368Z,24.20
2018-08-12T03:37:53.076Z,24.20
2018-08-12T03:40:21.420Z,24.20
2018-08-12T03:42:50.073Z,24.20
2018-08-12T03:45:18.536Z,24.20
2018-08-12T03:47:47.196Z,24.20
2018-08-12T03:50:15.891Z,24.20
2018-08-12T03:52:44.736Z,24.10
2018-08-12T03:55:13.191Z,24.10
2018-08-12T03:57:41.700Z,24.10
2018-08-12T04:00:14.249Z,24.10
2018-08-12T04:02:43.068Z,24.10
2018-08-12T04:05:11.808Z,24.10
2018-08-12T04:07:40.601Z,24.10
2018-08-12T04:10:09.538Z,24.00
2018-08-12T04:12:38.075Z,24.00
2018-08-12T04:15:07.559Z,24.00
2018-08-12T04:17:35.891Z,23.90
2018-08-12T04:20:05.323Z,23.90
2018-08-12T04:22:33.721Z,24.00
2018-08-12T04:25:02.128Z,23.90
2018-08-12T04:27:30.735Z,24.00
2018-08-12T04:29:59.823Z,24.00
2018-08-12T04:32:28.582Z,24.00
2018-08-12T04:34:57.345Z,24.00
2018-08-12T04:37:25.673Z,24.00
2018-08-12T04:39:55.617Z,23.90
2018-08-12T04:42:24.119Z,23.90
2018-08-12T04:44:52.779Z,23.90
2018-08-12T04:47:21.084Z,23.90
2018-08-12T04:49:49.610Z,23.90
2018-08-12T04:52:18.417Z,23.90
2018-08-12T04:54:46.886Z,23.90
2018-08-12T04:57:15.393Z,23.90
2018-08-12T04:59:43.764Z,23.90
2018-08-12T05:02:12.221Z,23.90
2018-08-12T05:04:40.914Z,23.80
2018-08-12T05:07:09.638Z,23.70
2018-08-12T05:09:38.415Z,23.80
2018-08-12T05:12:06.901Z,23.80
2018-08-12T05:14:43.884Z,23.80
2018-08-12T05:17:12.185Z,23.80
2018-08-12T05:19:40.480Z,23.70
2018-08-12T05:22:09.352Z,23.80
2018-08-12T05:24:37.828Z,23.80
2018-08-12T05:27:06.910Z,23.80
2018-08-12T05:29:35.355Z,23.80
2018-08-12T05:32:04.268Z,23.80
2018-08-12T05:34:32.979Z,23.70
2018-08-12T05:37:01.365Z,23.70
2018-08-12T05:39:29.971Z,23.80
2018-08-12T05:41:58.698Z,23.70
2018-08-12T05:44:27.119Z,23.80
2018-08-12T05:46:55.820Z,23.80
2018-08-12T05:49:24.393Z,23.70
2018-08-12T05:51:52.859Z,23.80
2018-08-12T05:54:21.504Z,23.80
2018-08-12T05:56:50.023Z,23.70
2018-08-12T05:59:18.466Z,23.70
2018-08-12T06:01:47.122Z,23.80
2018-08-12T06:04:15.820Z,23.80
2018-08-12T06:06:44.200Z,23.80
2018-08-12T06:09:12.939Z,23.70
2018-08-12T06:11:41.784Z,23.80
2018-08-12T06:14:10.432Z,23.70
2018-08-12T06:16:39.186Z,23.80
2018-08-12T06:19:07.589Z,23.80
2018-08-12T06:21:35.904Z,23.80
2018-08-12T06:24:04.827Z,23.80
2018-08-12T06:26:33.670Z,23.80
2018-08-12T06:29:02.384Z,23.90
2018-08-12T06:31:30.965Z,23.90
2018-08-12T06:33:59.758Z,23.90
2018-08-12T06:36:28.652Z,23.90
2018-08-12T06:38:57.132Z,24.00
2018-08-12T06:41:25.543Z,24.00
2018-08-12T06:43:54.185Z,24.00
2018-08-12T06:46:22.709Z,24.00
2018-08-12T06:48:51.243Z,24.00
2018-08-12T06:51:19.977Z,24.10
2018-08-12T06:53:48.856Z,24.10
2018-08-12T06:56:17.523Z,24.10
2018-08-12T06:58:46.155Z,24.10
2018-08-12T07:01:14.919Z,24.20
2018-08-12T07:03:43.725Z,24.20
2018-08-12T07:06:12.412Z,24.20
2018-08-12T07:08:40.778Z,24.30
2018-08-12T07:11:09.199Z,24.30
2018-08-12T07:13:37.744Z,24.30
2018-08-12T07:16:06.232Z,24.40
2018-08-12T07:18:34.811Z,24.40
2018-08-12T07:21:03.787Z,24.40
2018-08-12T07:23:32.313Z,24.40
2018-08-12T07:26:01.188Z,24.40
2018-08-12T07:28:29.615Z,24.40
2018-08-12T07:30:58.117Z,24.50
2018-08-12T07:33:26.604Z,24.60
2018-08-12T07:35:55.223Z,24.60
2018-08-12T07:38:23.775Z,24.70
2018-08-12T07:40:52.271Z,24.60
2018-08-12T07:43:20.790Z,24.70
2018-08-12T07:45:49.259Z,24.70
2018-08-12T07:48:17.616Z,24.70
2018-08-12T07:50:46.108Z,24.70
2018-08-12T07:53:14.548Z,24.80
2018-08-12T07:55:43.016Z,24.80
2018-08-12T07:58:11.422Z,24.90
2018-08-12T08:00:40.099Z,24.90
2018-08-12T08:03:08.548Z,24.90
2018-08-12T08:05:37.147Z,24.90
2018-08-12T08:08:05.737Z,24.90
2018-08-12T08:10:34.646Z,25.00
2018-08-12T08:13:03.187Z,25.00
2018-08-12T08:15:32.267Z,25.00
2018-08-12T08:18:00.672Z,25.10
2018-08-12T08:20:29.565Z,25.10
2018-08-12T08:22:58.178Z,25.10
2018-08-12T08:25:26.759Z,25.20
2018-08-12T08:27:55.204Z,25.20
2018-08-12T08:30:23.659Z,25.30
2018-08-12T08:32:52.197Z,25.30
2018-08-12T08:35:20.628Z,25.30
2018-08-12T08:37:49.469Z,25.40
2018-08-12T08:40:17.982Z,25.40
2018-08-12T08:42:46.833Z,25.50
2018-08-12T08:45:17.825Z,25.50
2018-08-12T08:47:47.604Z,25.60
2018-08-12T08:51:18.628Z,25.60
2018-08-12T08:53:47.068Z,25.60
2018-08-12T08:56:15.521Z,25.70
2018-08-12T08:58:44.343Z,25.70
2018-08-12T09:01:12.993Z,25.80
2018-08-12T09:03:41.753Z,25.80
2018-08-12T09:06:10.167Z,25.90
2018-08-12T09:08:39.218Z,25.90
2018-08-12T09:11:07.795Z,25.90
2018-08-12T09:13:36.568Z,25.90
2018-08-12T09:16:05.508Z,26.00
2018-08-12T09:18:34.080Z,26.00
2018-08-12T09:21:02.560Z,26.10
2018-08-12T09:23:31.055Z,26.10
2018-08-12T09:25:59.632Z,26.10
2018-08-12T09:28:27.959Z,26.20
2018-08-12T09:30:56.839Z,26.20
2018-08-12T09:33:25.300Z,26.20
2018-08-12T09:35:53.644Z,26.30
2018-08-12T09:38:21.967Z,26.40
2018-08-12T09:40:50.679Z,26.40
2018-08-12T09:43:19.137Z,26.50
2018-08-12T09:45:47.494Z,26.50
2018-08-12T09:48:15.910Z,26.60
2018-08-12T09:50:44.686Z,26.60
2018-08-12T09:53:13.208Z,26.60
2018-08-12T09:55:41.776Z,26.70
2018-08-12T09:58:10.428Z,26.70
2018-08-12T10:00:40.281Z,26.70
2018-08-12T10:03:09.684Z,26.70
2018-08-12T10:05:38.409Z,26.80
2018-08-12T10:08:07.065Z,26.80
2018-08-12T10:10:36.070Z,26.80
2018-08-12T10:13:04.815Z,26.90
2018-08-12T10:15:45.394Z,26.90
2018-08-12T10:18:13.957Z,26.90
2018-08-12T10:20:42.696Z,27.00
2018-08-12T10:23:11.140Z,27.00
2018-08-12T10:25:39.596Z,27.00
2018-08-12T10:28:08.306Z,27.10
2018-08-12T10:30:37.221Z,27.20
2018-08-12T10:33:06.448Z,27.20
2018-08-12T10:35:35.048Z,27.20
2018-08-12T10:38:04.020Z,27.30
2018-08-12T10:40:32.607Z,27.30
2018-08-12T10:43:01.017Z,27.30
2018-08-12T10:45:29.716Z,27.40
2018-08-12T10:47:58.178Z,27.40
2018-08-12T10:50:26.572Z,27.50
2018-08-12T10:52:58.050Z,27.50
2018-08-12T10:55:26.908Z,27.60
2018-08-12T10:57:55.342Z,27.70
2018-08-12T11:00:29.119Z,27.90
2018-08-12T11:02:57.584Z,28.00
2018-08-12T11:05:26.469Z,28.00
2018-08-12T11:07:57.705Z,28.10
2018-08-12T11:10:27.025Z,28.20
2018-08-12T11:12:55.641Z,28.30
2018-08-12T11:15:58.419Z,28.50
2018-08-12T11:18:26.841Z,28.50
2018-08-12T11:20:55.278Z,28.70
2018-08-12T11:23:23.739Z,28.90
2018-08-12T11:25:52.409Z,29.10
2018-08-12T11:28:21.250Z,29.30
2018-08-12T11:30:49.566Z,29.50
2018-08-12T11:33:18.432Z,29.80
2018-08-12T11:35:47.283Z,30.00
2018-08-12T11:38:15.792Z,30.20
2018-08-12T11:40:44.353Z,30.60
2018-08-12T11:43:12.979Z,30.80
2018-08-12T11:45:41.945Z,31.00
2018-08-12T11:48:10.603Z,31.30
2018-08-12T11:50:39.376Z,31.50
2018-08-12T11:53:08.087Z,31.70
2018-08-12T11:55:36.675Z,31.90
2018-08-12T11:58:11.967Z,32.00
2018-08-12T12:00:40.719Z,32.20
2018-08-12T12:03:09.602Z,32.50
2018-08-12T12:05:38.036Z,32.70
2018-08-12T12:08:07.095Z,32.90
2018-08-12T12:10:36.292Z,33.00
2018-08-12T12:13:05.361Z,33.20
2018-08-12T12:16:06.452Z,33.30
2018-08-12T12:18:35.051Z,33.50
2018-08-12T12:21:03.776Z,33.50
2018-08-12T12:23:32.231Z,33.70
2018-08-12T12:26:00.791Z,33.80
2018-08-12T12:28:29.540Z,33.90
2018-08-12T12:30:58.553Z,34.00
2018-08-12T12:33:26.988Z,34.00
2018-08-12T12:35:55.775Z,34.00
2018-08-12T12:38:24.648Z,34.00
2018-08-12T12:40:53.099Z,34.10
2018-08-12T12:43:21.893Z,34.20
2018-08-12T12:45:50.767Z,34.10
2018-08-12T12:48:19.337Z,34.10
2018-08-12T12:50:47.793Z,34.20
2018-08-12T12:53:16.348Z,34.20
2018-08-12T12:55:44.940Z,34.20
2018-08-12T12:58:13.263Z,34.20
2018-08-12T13:00:41.911Z,34.10
2018-08-12T13:03:10.403Z,34.10
2018-08-12T13:05:39.104Z,34.20
2018-08-12T13:08:08.007Z,34.10
2018-08-12T13:10:37.096Z,34.00
2018-08-12T13:13:06.098Z,34.00
2018-08-12T13:18:53.608Z,33.90
2018-08-12T13:21:22.280Z,33.80
2018-08-12T13:23:50.675Z,33.80
2018-08-12T13:26:19.270Z,33.70
2018-08-12T13:28:47.703Z,33.70
2018-08-12T13:31:16.104Z,33.60
2018-08-12T13:33:44.903Z,33.60
2018-08-12T13:36:13.609Z,33.60
2018-08-12T13:38:42.112Z,33.50
2018-08-12T13:41:10.479Z,33.50
2018-08-12T13:43:39.051Z,33.40
2018-08-12T13:46:07.533Z,33.40
2018-08-12T13:48:35.894Z,33.30
2018-08-12T13:51:04.742Z,33.30
2018-08-12T13:53:33.251Z,33.30
2018-08-12T13:56:01.747Z,33.30
2018-08-12T13:58:30.300Z,33.30
2018-08-12T14:00:59.151Z,33.20
2018-08-12T14:03:27.561Z,33.20
2018-08-12T14:05:56.007Z,33.20
2018-08-12T14:08:24.815Z,33.10
2018-08-12T14:10:53.243Z,33.10
2018-08-12T14:13:22.200Z,33.10
2018-08-12T14:16:37.166Z,33.00
2018-08-12T14:19:06.058Z,32.90
2018-08-12T14:21:35.436Z,33.00
2018-08-12T14:24:04.623Z,32.90
2018-08-12T14:26:32.889Z,32.90
2018-08-12T14:29:01.627Z,32.90
2018-08-12T14:31:30.152Z,32.90
2018-08-12T14:33:58.800Z,32.80
2018-08-12T14:36:27.224Z,32.80
2018-08-12T14:38:55.640Z,32.70
2018-08-12T14:41:24.429Z,32.70
2018-08-12T14:43:52.856Z,32.70
2018-08-12T14:46:21.536Z,32.70
2018-08-12T14:48:49.883Z,32.60
2018-08-12T14:51:18.908Z,32.70
2018-08-12T14:53:47.402Z,32.70
2018-08-12T14:56:16.084Z,32.70
2018-08-12T14:58:44.544Z,32.70
2018-08-12T15:01:12.991Z,32.70
2018-08-12T15:03:41.605Z,32.60
2018-08-12T15:06:10.063Z,32.60
2018-08-12T15:08:38.906Z,32.60
2018-08-12T15:11:07.427Z,32.60
2018-08-12T15:13:35.887Z,32.60
2018-08-12T15:16:47.228Z,32.60
2018-08-12T15:19:15.808Z,32.60
2018-08-12T15:21:44.638Z,32.50
2018-08-12T15:24:13.112Z,32.50
2018-08-12T15:26:41.635Z,32.50
2018-08-12T15:29:10.158Z,32.40
2018-08-12T15:31:38.633Z,32.50
2018-08-12T15:34:07.708Z,32.50
2018-08-12T15:36:36.328Z,32.40
2018-08-12T15:39:08.883Z,32.40
2018-08-12T15:41:37.820Z,32.40
2018-08-12T15:44:06.557Z,32.40
2018-08-12T15:46:35.194Z,32.40
2018-08-12T15:49:03.742Z,32.40
2018-08-12T15:51:32.207Z,32.40
2018-08-12T15:54:00.770Z,32.40
2018-08-12T15:56:29.504Z,32.40
2018-08-12T15:58:58.055Z,32.40
2018-08-12T16:01:26.727Z,32.40
2018-08-12T16:03:55.725Z,32.40
2018-08-12T16:06:24.619Z,32.40
2018-08-12T16:08:53.421Z,32.30
2018-08-12T16:11:29.512Z,32.30
2018-08-12T16:13:58.049Z,32.40
2018-08-12T16:16:58.852Z,32.30
2018-08-12T16:19:27.555Z,32.30
2018-08-12T16:21:56.368Z,32.20
2018-08-12T16:24:24.716Z,32.20
2018-08-12T16:26:53.132Z,32.20
2018-08-12T16:29:21.640Z,32.20
2018-08-12T16:31:50.194Z,32.20
2018-08-12T16:34:18.954Z,32.20
2018-08-12T16:36:47.608Z,32.10
2018-08-12T16:39:16.024Z,32.10
2018-08-12T16:41:44.981Z,32.10
2018-08-12T16:44:13.742Z,32.10
2018-08-12T16:46:42.394Z,32.10
2018-08-12T16:49:11.307Z,32.20
2018-08-12T16:51:39.756Z,32.10
2018-08-12T16:54:08.206Z,32.10
2018-08-12T16:56:37.007Z,32.10
2018-08-12T16:59:05.969Z,32.10
2018-08-12T17:01:34.424Z,32.10
2018-08-12T17:04:03.269Z,32.10
2018-08-12T17:06:31.736Z,32.10
2018-08-12T17:09:00.513Z,32.00
2018-08-12T17:11:32.176Z,32.00
2018-08-12T17:14:00.867Z,32.00
2018-08-12T17:16:47.753Z,32.00
2018-08-12T17:19:16.559Z,32.00
2018-08-12T17:21:44.936Z,32.00
2018-08-12T17:24:13.240Z,31.90
2018-08-12T17:26:41.992Z,31.90
2018-08-12T17:29:10.511Z,31.90
2018-08-12T17:31:39.402Z,31.90
2018-08-12T17:34:07.783Z,31.80
2018-08-12T17:36:36.524Z,31.80
2018-08-12T17:39:07.875Z,31.80
2018-08-12T17:41:36.427Z,31.80
2018-08-12T17:44:05.200Z,31.70
2018-08-12T17:46:34.008Z,31.70
2018-08-12T17:49:02.528Z,31.60
2018-08-12T17:51:31.119Z,31.60
2018-08-12T17:54:00.349Z,31.60
2018-08-12T17:56:29.436Z,31.60
2018-08-12T17:58:58.609Z,31.50
2018-08-12T18:01:27.304Z,31.50
2018-08-12T18:03:56.047Z,31.50
2018-08-12T18:06:24.959Z,31.50
2018-08-12T18:08:53.660Z,31.50
2018-08-12T18:11:29.018Z,31.50
2018-08-12T18:13:57.634Z,31.40
2018-08-12T18:17:14.007Z,31.40
2018-08-12T18:19:42.558Z,31.30
2018-08-12T18:22:11.179Z,31.30
2018-08-12T18:24:39.763Z,31.30
2018-08-12T18:27:08.533Z,31.20
2018-08-12T18:29:37.210Z,31.20
2018-08-12T18:32:05.783Z,31.10
2018-08-12T18:34:34.179Z,31.00
2018-08-12T18:37:03.166Z,31.00
2018-08-12T18:39:31.849Z,30.90
2018-08-12T18:42:00.332Z,30.90
2018-08-12T18:44:29.794Z,30.70
2018-08-12T18:46:59.150Z,30.70
2018-08-12T18:49:29.116Z,30.70
2018-08-12T18:51:58.008Z,30.60
2018-08-12T18:54:27.514Z,30.60
2018-08-12T18:56:57.180Z,30.50
2018-08-12T18:59:26.881Z,30.50
2018-08-12T19:01:56.844Z,30.50
2018-08-12T19:04:26.125Z,30.40
2018-08-12T19:06:55.348Z,30.40
2018-08-12T19:09:24.468Z,30.20
2018-08-12T19:11:54.012Z,30.20
2018-08-12T19:14:39.825Z,30.20
2018-08-12T19:17:29.530Z,30.20
2018-08-12T19:19:59.952Z,30.10
2018-08-12T19:22:29.084Z,30.10
2018-08-12T19:25:00.292Z,30.00
2018-08-12T19:27:29.455Z,30.00
2018-08-12T19:30:00.207Z,29.90
2018-08-12T19:32:29.987Z,29.90
2018-08-12T19:35:01.180Z,29.90
2018-08-12T19:37:30.412Z,29.90
2018-08-12T19:40:01.144Z,29.80
2018-08-12T19:42:31.124Z,29.70
2018-08-12T19:45:01.795Z,29.70
2018-08-12T19:47:30.971Z,29.60
2018-08-12T19:50:01.915Z,29.50
2018-08-12T19:52:31.235Z,29.50
2018-08-12T19:55:02.347Z,29.60
2018-08-12T19:57:32.385Z,29.50
2018-08-12T20:00:02.074Z,29.40
2018-08-12T20:02:31.307Z,29.40
2018-08-12T20:05:02.057Z,29.30
2018-08-12T20:07:31.317Z,29.30
2018-08-12T20:10:02.242Z,29.30
2018-08-12T20:12:32.316Z,29.20
2018-08-12T20:15:43.625Z,29.20
2018-08-12T20:18:13.535Z,29.10
2018-08-12T20:20:43.081Z,29.10
2018-08-12T20:23:13.164Z,29.00
2018-08-12T20:26:07.882Z,29.00
2018-08-12T20:28:38.028Z,29.00
2018-08-12T20:31:08.045Z,28.90
2018-08-12T20:33:37.841Z,28.90
2018-08-12T20:36:07.134Z,28.90
2018-08-12T20:38:36.873Z,28.80
2018-08-12T20:41:06.036Z,28.80
2018-08-12T20:43:35.225Z,28.80
2018-08-12T20:46:04.436Z,28.70
2018-08-12T20:48:34.477Z,28.70
2018-08-12T20:51:03.502Z,28.70
2018-08-12T20:53:43.809Z,28.60
2018-08-12T20:56:12.862Z,28.50
2018-08-12T20:58:41.777Z,28.50
2018-08-12T21:01:11.107Z,28.50
2018-08-12T21:03:39.889Z,28.40
2018-08-12T21:06:08.782Z,28.50
2018-08-12T21:08:37.375Z,28.50
2018-08-12T21:11:06.180Z,28.50
2018-08-12T21:13:34.644Z,28.60
2018-08-12T21:19:28.985Z,28.50
2018-08-12T21:21:57.791Z,28.50
2018-08-12T21:24:26.762Z,28.50
2018-08-12T21:26:55.179Z,28.40
2018-08-12T21:29:23.756Z,28.40
2018-08-12T21:31:52.298Z,28.40
2018-08-12T21:34:21.659Z,28.40
2018-08-12T21:36:50.180Z,28.30
2018-08-12T21:39:18.627Z,28.30
2018-08-12T21:41:47.056Z,28.20
2018-08-12T21:44:15.573Z,28.20
2018-08-12T21:46:44.235Z,28.10
2018-08-12T21:49:12.695Z,28.00
2018-08-12T21:51:41.148Z,28.10
2018-08-12T21:54:09.654Z,28.00
2018-08-12T21:56:38.227Z,28.00
2018-08-12T21:59:06.705Z,28.00
2018-08-12T22:01:35.346Z,28.00
2018-08-12T22:04:03.867Z,27.90
2018-08-12T22:06:32.262Z,27.80
2018-08-12T22:09:00.724Z,27.80
2018-08-12T22:11:30.155Z,27.70
2018-08-12T22:13:58.571Z,27.60
2018-08-12T22:16:26.957Z,27.60
2018-08-12T22:18:55.432Z,27.60
2018-08-12T22:21:23.902Z,27.60
2018-08-12T22:23:53.271Z,27.60
2018-08-12T22:26:22.762Z,27.60
2018-08-12T22:28:56.500Z,27.60
2018-08-12T22:31:24.976Z,27.50
2018-08-12T22:33:53.489Z,27.40
2018-08-12T22:36:22.082Z,27.50
2018-08-12T22:38:50.552Z,27.40
2018-08-12T22:41:19.010Z,27.40
2018-08-12T22:43:47.527Z,27.40
2018-08-12T22:46:15.959Z,27.30
2018-08-12T22:48:44.340Z,27.30
2018-08-12T22:51:12.811Z,27.20
2018-08-12T22:53:41.162Z,27.20
2018-08-12T22:56:09.648Z,27.20
2018-08-12T22:58:38.483Z,27.10
2018-08-12T23:01:08.002Z,27.10
2018-08-12T23:03:36.523Z,27.10
2018-08-12T23:06:05.016Z,27.10
2018-08-12T23:08:33.543Z,27.10
2018-08-12T23:11:01.844Z,27.00
2018-08-12T23:13:30.259Z,27.00
2018-08-12T23:16:13.002Z,26.90
2018-08-12T23:18:41.426Z,26.90
2018-08-12T23:21:11.847Z,26.90
2018-08-12T23:23:41.660Z,26.80
2018-08-12T23:26:11.606Z,26.90
2018-08-12T23:28:40.184Z,26.90
2018-08-12T23:31:09.040Z,26.90
2018-08-12T23:33:38.025Z,26.90
2018-08-12T23:36:06.548Z,26.80
2018-08-12T23:38:35.226Z,26.80
2018-08-12T23:41:03.700Z,26.80
2018-08-12T23:43:32.293Z,26.80
2018-08-12T23:46:00.724Z,26.80
2018-08-12T23:48:29.756Z,26.70
2018-08-12T23:50:58.327Z,26.70
2018-08-12T23:53:26.703Z,26.60
2018-08-12T23:55:55.151Z,26.60
2018-08-12T23:58:23.695Z,26.60
